Time;durP1;ratioP1;P1;durP2;ratioP2;P2;SDS_P1;SDS_P2;PMS_P1;PMS_P2;Temp;Humidity;BMP_temperature;BMP_pressure;BME280_temperature;BME280_humidity;BME280_pressure;Samples;Min_cycle;Max_cycle;Signal;HPM_P1;HPM_P2
2022/09/18 00:01:42;;;;;;;1.23;0.40;;;;;;;;;;7392826;19;20014;-83
2022/09/18 00:04:15;;;;;;;2.72;0.50;;;;;;;;;;7394589;19;19983;-84
2022/09/18 00:06:42;;;;;;;2.47;0.50;;;;;;;;;;7396143;19;20010;-83
2022/09/18 00:09:11;;;;;;;3.45;0.30;;;;;;;;;;7393453;19;20003;-84
2022/09/18 00:11:43;;;;;;;3.22;0.40;;;;;;;;;;7395275;19;20037;-84
2022/09/18 00:14:11;;;;;;;1.63;0.38;;;;;;;;;;7396103;19;19994;-84
2022/09/18 00:16:37;;;;;;;2.65;0.52;;;;;;;;;;7396414;19;20007;-85
2022/09/18 00:19:04;;;;;;;2.58;0.40;;;;;;;;;;7397339;19;20010;-84
2022/09/18 00:21:30;;;;;;;6.43;0.50;;;;;;;;;;7393968;19;20013;-84
2022/09/18 00:23:58;;;;;;;1.75;0.38;;;;;;;;;;7397790;19;20474;-85
2022/09/18 00:26:26;;;;;;;2.67;0.52;;;;;;;;;;7398926;19;20020;-85
2022/09/18 00:28:53;;;;;;;1.13;0.35;;;;;;;;;;7391949;19;20066;-85
2022/09/18 00:31:24;;;;;;;2.95;0.38;;;;;;;;;;7394499;19;19998;-85
2022/09/18 00:33:49;;;;;;;3.00;0.65;;;;;;;;;;7407715;19;20003;-85
2022/09/18 00:36:17;;;;;;;0.82;0.25;;;;;;;;;;7406627;19;20019;-86
2022/09/18 00:38:42;;;;;;;2.92;0.75;;;;;;;;;;7407891;19;19994;-86
2022/09/18 00:41:13;;;;;;;1.83;0.50;;;;;;;;;;7408883;19;20111;-86
2022/09/18 00:43:39;;;;;;;2.08;0.63;;;;;;;;;;7403763;19;20002;-86
2022/09/18 00:46:08;;;;;;;2.40;0.65;;;;;;;;;;7407210;19;20028;-86
2022/09/18 00:49:02;;;;;;;1.75;0.30;;;;;;;;;;7405091;19;20009;-86
2022/09/18 00:51:29;;;;;;;1.30;0.30;;;;;;;;;;7404211;19;20007;-86
2022/09/18 00:54:04;;;;;;;3.90;0.40;;;;;;;;;;7403964;19;20009;-85
2022/09/18 00:56:29;;;;;;;1.65;0.77;;;;;;;;;;7407346;19;20054;-85
2022/09/18 00:58:55;;;;;;;0.75;0.20;;;;;;;;;;7401845;19;20057;-85
2022/09/18 01:01:20;;;;;;;1.70;0.40;;;;;;;;;;7399392;19;20006;-85
2022/09/18 01:03:46;;;;;;;0.75;0.22;;;;;;;;;;7402800;19;20018;-85
2022/09/18 01:06:37;;;;;;;0.60;0.20;;;;;;;;;;7406349;19;19994;-85
2022/09/18 01:09:25;;;;;;;1.17;0.30;;;;;;;;;;7404470;19;20015;-85
2022/09/18 01:12:03;;;;;;;2.95;0.57;;;;;;;;;;7404784;19;20018;-85
2022/09/18 01:14:50;;;;;;;0.82;0.30;;;;;;;;;;7402503;19;20009;-85
2022/09/18 01:17:44;;;;;;;0.22;0.20;;;;;;;;;;7400910;19;20018;-85
2022/09/18 01:20:45;;;;;;;0.85;0.25;;;;;;;;;;7403551;19;20333;-85
2022/09/18 01:23:28;;;;;;;0.22;0.20;;;;;;;;;;7399150;19;20085;-86
2022/09/18 01:26:17;;;;;;;1.65;0.28;;;;;;;;;;7404899;19;20007;-86
2022/09/18 01:29:09;;;;;;;0.88;0.35;;;;;;;;;;7397059;19;20087;-86
2022/09/18 01:31:48;;;;;;;1.33;0.20;;;;;;;;;;7404567;19;20030;-86
2022/09/18 01:34:22;;;;;;;0.38;0.20;;;;;;;;;;7405565;19;20014;-87
2022/09/18 01:36:55;;;;;;;0.60;0.30;;;;;;;;;;7403257;19;20348;-87
2022/09/18 01:39:28;;;;;;;1.10;0.20;;;;;;;;;;7404745;19;20030;-86
2022/09/18 01:41:55;;;;;;;0.20;0.15;;;;;;;;;;7402023;19;20013;-86
2022/09/18 01:44:26;;;;;;;1.70;0.10;;;;;;;;;;7400107;19;20006;-87
2022/09/18 01:46:55;;;;;;;0.30;0.28;;;;;;;;;;7401730;19;20014;-85
2022/09/18 01:49:24;;;;;;;1.08;0.40;;;;;;;;;;7401486;19;20506;-86
2022/09/18 01:51:54;;;;;;;0.68;0.30;;;;;;;;;;7401806;19;20035;-86
2022/09/18 01:54:24;;;;;;;0.70;0.20;;;;;;;;;;7403103;19;20014;-87
2022/09/18 01:57:11;;;;;;;4.03;0.50;;;;;;;;;;7403624;19;20017;-86
2022/09/18 01:59:45;;;;;;;0.68;0.25;;;;;;;;;;7400697;19;20370;-86
2022/09/18 02:02:17;;;;;;;0.73;0.30;;;;;;;;;;7400800;19;20018;-86
2022/09/18 02:04:45;;;;;;;2.85;0.50;;;;;;;;;;7400537;19;20260;-86
2022/09/18 02:07:34;;;;;;;1.38;0.40;;;;;;;;;;7393617;19;19995;-86
2022/09/18 02:10:00;;;;;;;2.20;0.40;;;;;;;;;;7396029;19;20364;-86
2022/09/18 02:12:28;;;;;;;0.90;0.35;;;;;;;;;;7392488;19;20019;-85
2022/09/18 02:14:58;;;;;;;0.20;0.17;;;;;;;;;;7395575;19;20021;-86
2022/09/18 02:17:48;;;;;;;1.52;0.55;;;;;;;;;;7397051;19;19991;-86
2022/09/18 02:20:19;;;;;;;0.50;0.35;;;;;;;;;;7394170;19;19998;-86
2022/09/18 02:22:48;;;;;;;0.38;0.30;;;;;;;;;;7395924;19;20013;-87
2022/09/18 02:25:18;;;;;;;1.55;0.32;;;;;;;;;;7393304;19;20001;-86
2022/09/18 02:27:43;;;;;;;0.80;0.32;;;;;;;;;;7393613;19;20002;-87
2022/09/18 02:30:10;;;;;;;1.98;0.45;;;;;;;;;;7391932;19;20343;-86
2022/09/18 02:32:37;;;;;;;2.22;0.75;;;;;;;;;;7390725;19;20540;-86
2022/09/18 02:35:05;;;;;;;1.08;0.20;;;;;;;;;;7395906;19;20010;-87
2022/09/18 02:37:54;;;;;;;1.70;0.40;;;;;;;;;;7395533;19;20006;-84
2022/09/18 02:40:49;;;;;;;2.08;0.32;;;;;;;;;;7395679;19;20006;-85
2022/09/18 02:43:25;;;;;;;2.55;0.57;;;;;;;;;;7392808;19;20057;-85
2022/09/18 02:46:22;;;;;;;1.35;0.35;;;;;;;;;;7395477;19;20073;-85
2022/09/18 02:48:59;;;;;;;2.53;0.50;;;;;;;;;;7394003;19;20010;-84
2022/09/18 02:51:44;;;;;;;2.88;0.85;;;;;;;;;;7393069;19;19999;-84
2022/09/18 02:54:38;;;;;;;2.67;0.50;;;;;;;;;;7392928;19;20031;-84
2022/09/18 02:57:09;;;;;;;0.50;0.40;;;;;;;;;;7387844;19;20742;-84
2022/09/18 02:59:42;;;;;;;2.70;0.93;;;;;;;;;;7393069;19;20022;-84
2022/09/18 03:02:08;;;;;;;2.38;0.50;;;;;;;;;;7389864;19;20014;-84
2022/09/18 03:04:33;;;;;;;1.25;0.50;;;;;;;;;;7393177;19;20014;-84
2022/09/18 03:06:59;;;;;;;1.73;0.52;;;;;;;;;;7391568;19;20351;-84
2022/09/18 03:09:25;;;;;;;3.90;0.60;;;;;;;;;;7389240;19;20042;-84
2022/09/18 03:11:50;;;;;;;1.08;0.35;;;;;;;;;;7392980;19;20010;-84
2022/09/18 03:14:16;;;;;;;4.28;0.63;;;;;;;;;;7393619;19;20031;-85
2022/09/18 03:16:41;;;;;;;2.85;0.50;;;;;;;;;;7395685;19;19994;-84
2022/09/18 03:19:06;;;;;;;2.95;0.60;;;;;;;;;;7390616;19;20339;-84
2022/09/18 03:21:32;;;;;;;1.13;0.30;;;;;;;;;;7392447;19;20014;-83
2022/09/18 03:23:57;;;;;;;1.48;0.40;;;;;;;;;;7393843;19;20009;-84
2022/09/18 03:26:23;;;;;;;1.88;0.38;;;;;;;;;;7394508;19;20022;-85
2022/09/18 03:28:48;;;;;;;1.25;0.60;;;;;;;;;;7389721;19;20002;-84
2022/09/18 03:31:13;;;;;;;1.95;0.50;;;;;;;;;;7391556;19;20019;-84
2022/09/18 03:33:39;;;;;;;1.48;0.50;;;;;;;;;;7394779;19;20066;-84
2022/09/18 03:36:05;;;;;;;3.22;0.95;;;;;;;;;;7392271;19;20014;-85
2022/09/18 03:38:31;;;;;;;1.65;0.50;;;;;;;;;;7395628;19;20010;-84
2022/09/18 03:40:58;;;;;;;2.15;0.40;;;;;;;;;;7390406;19;20003;-84
2022/09/18 03:43:25;;;;;;;3.92;0.50;;;;;;;;;;7390450;19;20010;-84
2022/09/18 03:45:50;;;;;;;0.52;0.20;;;;;;;;;;7393329;19;20472;-84
2022/09/18 03:48:15;;;;;;;4.10;0.90;;;;;;;;;;7389880;19;20014;-84
2022/09/18 03:50:41;;;;;;;2.30;0.50;;;;;;;;;;7390633;19;20003;-84
2022/09/18 03:53:07;;;;;;;2.25;0.65;;;;;;;;;;7387534;19;20482;-68
2022/09/18 03:55:34;;;;;;;0.45;0.40;;;;;;;;;;7391993;19;20018;-68
2022/09/18 03:57:59;;;;;;;0.68;0.40;;;;;;;;;;7391541;19;20340;-69
2022/09/18 04:00:25;;;;;;;3.40;0.60;;;;;;;;;;7391798;19;20084;-69
2022/09/18 04:02:50;;;;;;;0.93;0.57;;;;;;;;;;7392321;19;20007;-68
2022/09/18 04:05:15;;;;;;;1.75;0.40;;;;;;;;;;7389636;19;20017;-69
2022/09/18 04:07:40;;;;;;;2.53;0.40;;;;;;;;;;7389554;19;20015;-69
2022/09/18 04:10:07;;;;;;;3.00;0.50;;;;;;;;;;7393171;19;19994;-68
2022/09/18 04:12:32;;;;;;;1.00;0.40;;;;;;;;;;7388581;19;20045;-69
2022/09/18 04:14:57;;;;;;;2.97;0.40;;;;;;;;;;7390352;19;20555;-68
2022/09/18 04:17:23;;;;;;;1.40;0.40;;;;;;;;;;7392740;19;19991;-69
2022/09/18 04:19:48;;;;;;;2.58;0.77;;;;;;;;;;7390987;19;20066;-68
2022/09/18 04:22:13;;;;;;;1.00;0.30;;;;;;;;;;7388063;19;20451;-68
2022/09/18 04:24:39;;;;;;;1.15;0.20;;;;;;;;;;7388520;19;20149;-69
2022/09/18 04:27:05;;;;;;;1.77;0.32;;;;;;;;;;7390180;19;20090;-69
2022/09/18 04:29:31;;;;;;;2.50;0.60;;;;;;;;;;7389827;19;20010;-69
2022/09/18 04:31:57;;;;;;;2.60;0.50;;;;;;;;;;7387656;19;20002;-69
2022/09/18 04:34:22;;;;;;;2.30;0.38;;;;;;;;;;7388346;19;20006;-69
2022/09/18 04:36:48;;;;;;;5.55;0.60;;;;;;;;;;7388866;19;20050;-69
2022/09/18 04:39:13;;;;;;;1.02;0.50;;;;;;;;;;7387871;19;20003;-69
2022/09/18 04:41:39;;;;;;;1.58;0.50;;;;;;;;;;7389348;19;20014;-69
2022/09/18 04:44:05;;;;;;;1.95;0.50;;;;;;;;;;7390804;19;20066;-69
2022/09/18 04:46:30;;;;;;;1.50;0.50;;;;;;;;;;7387710;19;20818;-68
2022/09/18 04:48:55;;;;;;;2.95;0.40;;;;;;;;;;7385653;19;20020;-68
2022/09/18 04:51:20;;;;;;;2.78;0.60;;;;;;;;;;7389664;19;20006;-69
2022/09/18 04:53:46;;;;;;;1.88;0.50;;;;;;;;;;7389608;19;20368;-69
2022/09/18 04:56:11;;;;;;;0.98;0.40;;;;;;;;;;7390335;19;20010;-69
2022/09/18 04:58:36;;;;;;;2.95;0.52;;;;;;;;;;7387000;19;20312;-69
2022/09/18 05:01:02;;;;;;;1.35;0.30;;;;;;;;;;7388078;19;20032;-69
2022/09/18 05:03:27;;;;;;;2.40;0.30;;;;;;;;;;7389357;19;20039;-69
2022/09/18 05:05:53;;;;;;;0.30;0.30;;;;;;;;;;7391367;19;19995;-69
2022/09/18 05:08:19;;;;;;;2.47;0.70;;;;;;;;;;7391195;19;20007;-69
2022/09/18 05:10:45;;;;;;;2.63;0.70;;;;;;;;;;7388391;19;20006;-69
2022/09/18 05:13:10;;;;;;;2.20;0.40;;;;;;;;;;7387928;19;20036;-69
2022/09/18 05:15:35;;;;;;;2.33;1.00;;;;;;;;;;7390287;19;20044;-69
2022/09/18 05:18:02;;;;;;;0.57;0.30;;;;;;;;;;7391168;19;20019;-69
2022/09/18 05:20:29;;;;;;;3.08;0.32;;;;;;;;;;7398058;19;20035;-69
2022/09/18 05:22:54;;;;;;;0.30;0.30;;;;;;;;;;7390091;19;20010;-69
2022/09/18 05:25:20;;;;;;;0.60;0.50;;;;;;;;;;7394480;19;20023;-69
2022/09/18 05:27:57;;;;;;;0.95;0.38;;;;;;;;;;7396381;19;20018;-69
2022/09/18 05:30:23;;;;;;;1.13;0.40;;;;;;;;;;7397204;19;19997;-69
2022/09/18 05:33:00;;;;;;;1.10;0.50;;;;;;;;;;7396078;19;20431;-69
2022/09/18 05:35:28;;;;;;;1.75;0.40;;;;;;;;;;7397840;19;20005;-70
2022/09/18 05:37:54;;;;;;;1.23;0.40;;;;;;;;;;7398437;19;20006;-69
2022/09/18 05:40:22;;;;;;;0.85;0.30;;;;;;;;;;7395780;19;20086;-70
2022/09/18 05:42:48;;;;;;;6.78;1.05;;;;;;;;;;7397085;19;20039;-69
2022/09/18 05:45:14;;;;;;;1.05;0.32;;;;;;;;;;7393250;19;20085;-70
2022/09/18 05:47:40;;;;;;;2.15;0.30;;;;;;;;;;7397238;19;20005;-69
2022/09/18 05:50:06;;;;;;;4.85;0.63;;;;;;;;;;7396116;19;19994;-69
2022/09/18 05:52:32;;;;;;;1.25;0.40;;;;;;;;;;7394673;19;20019;-69
2022/09/18 05:54:57;;;;;;;1.08;0.20;;;;;;;;;;7393875;19;20028;-69
2022/09/18 05:57:22;;;;;;;1.25;0.85;;;;;;;;;;7395783;19;20027;-69
2022/09/18 05:59:48;;;;;;;1.40;0.40;;;;;;;;;;7396445;19;19998;-70
2022/09/18 06:02:13;;;;;;;3.67;0.75;;;;;;;;;;7392834;19;20006;-70
2022/09/18 06:04:39;;;;;;;0.52;0.30;;;;;;;;;;7392658;19;20002;-70
2022/09/18 06:07:04;;;;;;;1.52;0.40;;;;;;;;;;7389233;19;20006;-70
2022/09/18 06:09:30;;;;;;;2.20;0.90;;;;;;;;;;7392560;19;20011;-70
2022/09/18 06:11:56;;;;;;;2.13;0.73;;;;;;;;;;7390078;19;20032;-70
2022/09/18 06:14:21;;;;;;;1.85;0.60;;;;;;;;;;7392115;19;20031;-70
2022/09/18 06:16:46;;;;;;;3.28;0.63;;;;;;;;;;7397145;19;20405;-70
2022/09/18 06:19:12;;;;;;;1.20;0.40;;;;;;;;;;7391733;19;20364;-70
2022/09/18 06:21:37;;;;;;;1.95;0.70;;;;;;;;;;7395002;19;20005;-71
2022/09/18 06:24:03;;;;;;;3.75;0.68;;;;;;;;;;7392491;19;20058;-70
2022/09/18 06:26:28;;;;;;;1.50;0.77;;;;;;;;;;7393522;19;20384;-70
2022/09/18 06:28:53;;;;;;;2.63;0.73;;;;;;;;;;7390532;19;20010;-70
2022/09/18 06:31:18;;;;;;;2.03;0.95;;;;;;;;;;7393059;19;20003;-70
2022/09/18 06:33:46;;;;;;;3.40;0.50;;;;;;;;;;7389849;19;20010;-70
2022/09/18 06:36:13;;;;;;;6.57;1.08;;;;;;;;;;7391497;19;20007;-71
2022/09/18 06:38:38;;;;;;;1.20;0.70;;;;;;;;;;7396552;19;20006;-69
2022/09/18 06:41:04;;;;;;;2.28;0.77;;;;;;;;;;7393885;19;20039;-71
2022/09/18 06:43:29;;;;;;;3.35;0.60;;;;;;;;;;7389950;19;20014;-70
2022/09/18 06:45:56;;;;;;;2.97;0.90;;;;;;;;;;7395765;19;20020;-70
2022/09/18 06:48:22;;;;;;;2.72;0.52;;;;;;;;;;7394866;19;20549;-70
2022/09/18 06:50:56;;;;;;;2.42;0.60;;;;;;;;;;7392654;19;20074;-67
2022/09/18 06:53:23;;;;;;;3.00;0.47;;;;;;;;;;7392195;19;20013;-71
2022/09/18 06:55:48;;;;;;;2.90;0.60;;;;;;;;;;7390650;19;20010;-72
2022/09/18 06:58:18;;;;;;;0.73;0.50;;;;;;;;;;7389393;19;20043;-71
2022/09/18 07:00:45;;;;;;;4.90;1.13;;;;;;;;;;7391688;19;20010;-71
2022/09/18 07:03:10;;;;;;;4.10;0.40;;;;;;;;;;7385884;19;20010;-71
2022/09/18 07:05:40;;;;;;;1.98;0.60;;;;;;;;;;7393682;19;20018;-70
2022/09/18 07:08:05;;;;;;;0.95;0.40;;;;;;;;;;7388226;19;20082;-69
2022/09/18 07:10:31;;;;;;;2.17;1.60;;;;;;;;;;7393536;19;20010;-74
2022/09/18 07:12:57;;;;;;;3.28;0.90;;;;;;;;;;7390933;19;20006;-70
2022/09/18 07:15:23;;;;;;;1.65;0.80;;;;;;;;;;7394594;19;20001;-71
2022/09/18 07:17:48;;;;;;;1.92;0.73;;;;;;;;;;7390320;19;20006;-70
2022/09/18 07:20:14;;;;;;;4.07;0.70;;;;;;;;;;7389478;19;20027;-70
2022/09/18 07:22:40;;;;;;;0.55;0.43;;;;;;;;;;7390930;19;20025;-71
2022/09/18 07:25:07;;;;;;;0.75;0.38;;;;;;;;;;7389106;19;20006;-71
2022/09/18 07:27:33;;;;;;;0.52;0.47;;;;;;;;;;7389056;19;20328;-71
2022/09/18 07:29:59;;;;;;;1.67;0.75;;;;;;;;;;7387278;19;20455;-71
2022/09/18 07:32:24;;;;;;;0.68;0.57;;;;;;;;;;7383614;19;20082;-71
2022/09/18 07:34:50;;;;;;;1.02;0.43;;;;;;;;;;7386021;19;20076;-71
2022/09/18 07:37:15;;;;;;;0.60;0.45;;;;;;;;;;7390654;19;20120;-69
2022/09/18 07:39:42;;;;;;;0.73;0.45;;;;;;;;;;7393840;19;20022;-71
2022/09/18 07:42:09;;;;;;;1.17;0.40;;;;;;;;;;7385753;19;20757;-70
2022/09/18 07:44:34;;;;;;;0.93;0.40;;;;;;;;;;7391988;19;20014;-72
2022/09/18 07:47:00;;;;;;;2.78;0.50;;;;;;;;;;7391558;19;20006;-71
2022/09/18 07:49:25;;;;;;;3.92;0.77;;;;;;;;;;7392350;19;20082;-71
2022/09/18 07:51:50;;;;;;;1.27;0.30;;;;;;;;;;7388630;19;20013;-70
2022/09/18 07:54:16;;;;;;;0.75;0.40;;;;;;;;;;7392302;19;20236;-71
2022/09/18 07:56:42;;;;;;;1.45;0.60;;;;;;;;;;7388318;19;20007;-70
2022/09/18 07:59:07;;;;;;;4.22;0.68;;;;;;;;;;7391692;19;19998;-70
2022/09/18 08:01:33;;;;;;;2.75;0.60;;;;;;;;;;7389964;19;20104;-71
2022/09/18 08:04:00;;;;;;;1.55;0.75;;;;;;;;;;7392494;19;20001;-71
2022/09/18 08:06:25;;;;;;;1.65;0.50;;;;;;;;;;7389149;19;20013;-71
2022/09/18 08:08:50;;;;;;;0.57;0.55;;;;;;;;;;7392267;19;20002;-70
2022/09/18 08:11:16;;;;;;;1.98;0.55;;;;;;;;;;7390088;19;20006;-70
2022/09/18 08:13:41;;;;;;;0.60;0.52;;;;;;;;;;7386584;19;20674;-70
2022/09/18 08:16:06;;;;;;;0.32;0.30;;;;;;;;;;7391939;19;20007;-71
2022/09/18 08:18:31;;;;;;;1.35;0.70;;;;;;;;;;7390839;19;20007;-71
2022/09/18 08:20:57;;;;;;;2.30;0.82;;;;;;;;;;7393274;19;19999;-71
2022/09/18 08:23:22;;;;;;;2.00;0.52;;;;;;;;;;7388089;19;20050;-72
2022/09/18 08:25:48;;;;;;;0.55;0.50;;;;;;;;;;7393211;19;19990;-71
2022/09/18 08:28:13;;;;;;;1.35;0.40;;;;;;;;;;7384522;19;20093;-73
2022/09/18 08:30:38;;;;;;;3.55;0.65;;;;;;;;;;7390559;19;20015;-72
2022/09/18 08:33:07;;;;;;;0.95;0.40;;;;;;;;;;7388160;19;20021;-72
2022/09/18 08:35:32;;;;;;;1.58;0.40;;;;;;;;;;7388188;19;20040;-71
2022/09/18 08:37:59;;;;;;;1.73;0.52;;;;;;;;;;7388661;19;20006;-70
2022/09/18 08:40:39;;;;;;;1.20;0.30;;;;;;;;;;7391100;19;20014;-72
2022/09/18 08:43:20;;;;;;;2.55;0.95;;;;;;;;;;7388380;19;20032;-72
2022/09/18 08:45:59;;;;;;;1.30;0.40;;;;;;;;;;7385500;19;20373;-71
2022/09/18 08:48:36;;;;;;;2.42;0.40;;;;;;;;;;7389451;19;20006;-72
2022/09/18 08:51:11;;;;;;;0.88;0.45;;;;;;;;;;7389264;19;20471;-71
2022/09/18 08:53:42;;;;;;;1.00;0.77;;;;;;;;;;7387712;19;20006;-71
2022/09/18 08:56:14;;;;;;;2.85;0.90;;;;;;;;;;7394191;19;20088;-71
2022/09/18 08:58:56;;;;;;;3.58;0.98;;;;;;;;;;7396391;19;20006;-69
2022/09/18 09:01:30;;;;;;;0.90;0.70;;;;;;;;;;7393293;19;20003;-72
2022/09/18 09:04:18;;;;;;;2.28;0.65;;;;;;;;;;7390518;19;20003;-71
2022/09/18 09:06:53;;;;;;;2.72;0.90;;;;;;;;;;7398158;19;20039;-70
2022/09/18 09:09:57;;;;;;;3.50;0.95;;;;;;;;;;7393973;19;20006;-71
2022/09/18 09:12:47;;;;;;;0.98;0.57;;;;;;;;;;7389148;19;20017;-71
2022/09/18 09:15:53;;;;;;;1.20;0.60;;;;;;;;;;7396401;19;20330;-72
2022/09/18 09:18:28;;;;;;;0.93;0.50;;;;;;;;;;7391028;19;20030;-71
2022/09/18 09:20:55;;;;;;;0.63;0.60;;;;;;;;;;7394503;19;20100;-70
2022/09/18 09:23:38;;;;;;;5.80;1.25;;;;;;;;;;7390712;19;20107;-72
2022/09/18 09:26:13;;;;;;;2.78;0.80;;;;;;;;;;7396107;19;20028;-71
2022/09/18 09:29:05;;;;;;;3.65;0.60;;;;;;;;;;7394018;19;20070;-72
2022/09/18 09:31:49;;;;;;;4.28;1.00;;;;;;;;;;7393550;19;20014;-71
2022/09/18 09:34:23;;;;;;;2.05;0.80;;;;;;;;;;7395356;19;20098;-71
2022/09/18 09:36:52;;;;;;;3.60;0.95;;;;;;;;;;7394893;19;21539;-71
2022/09/18 09:39:20;;;;;;;2.10;0.77;;;;;;;;;;7393308;19;20007;-72
2022/09/18 09:41:50;;;;;;;2.22;0.75;;;;;;;;;;7394408;19;20014;-72
2022/09/18 09:44:32;;;;;;;4.50;1.50;;;;;;;;;;7393508;19;20451;-73
2022/09/18 09:47:27;;;;;;;3.80;1.23;;;;;;;;;;7393994;19;20014;-73
2022/09/18 09:50:05;;;;;;;2.42;0.95;;;;;;;;;;7394012;19;20002;-73
2022/09/18 09:52:30;;;;;;;2.67;0.85;;;;;;;;;;7392732;19;20019;-73
2022/09/18 09:55:15;;;;;;;2.47;0.60;;;;;;;;;;7392674;19;20026;-72
2022/09/18 09:58:04;;;;;;;2.38;0.70;;;;;;;;;;7393300;19;20023;-72
2022/09/18 10:00:37;;;;;;;1.92;0.88;;;;;;;;;;7394388;19;20043;-73
2022/09/18 10:03:21;;;;;;;5.90;1.17;;;;;;;;;;7394123;19;20307;-73
2022/09/18 10:05:51;;;;;;;4.07;0.82;;;;;;;;;;7393348;19;19991;-72
2022/09/18 10:08:26;;;;;;;1.17;0.55;;;;;;;;;;7392552;19;19991;-72
2022/09/18 10:10:57;;;;;;;3.58;0.90;;;;;;;;;;7395134;19;19999;-72
2022/09/18 10:13:37;;;;;;;3.60;0.93;;;;;;;;;;7390586;19;20035;-73
2022/09/18 10:16:10;;;;;;;4.43;0.80;;;;;;;;;;7393043;19;20024;-72
2022/09/18 10:18:41;;;;;;;4.80;0.98;;;;;;;;;;7392881;19;20036;-72
2022/09/18 10:21:09;;;;;;;5.60;1.70;;;;;;;;;;7393475;19;20027;-72
2022/09/18 10:23:40;;;;;;;3.22;0.70;;;;;;;;;;7391385;19;20470;-72
2022/09/18 10:26:11;;;;;;;5.80;0.80;;;;;;;;;;7389147;19;20006;-73
2022/09/18 10:28:37;;;;;;;2.50;0.70;;;;;;;;;;7390841;19;20010;-72
2022/09/18 10:31:05;;;;;;;5.28;0.80;;;;;;;;;;7393420;19;20003;-73
2022/09/18 10:33:51;;;;;;;4.35;0.90;;;;;;;;;;7390639;19;20115;-73
2022/09/18 10:36:20;;;;;;;2.20;0.68;;;;;;;;;;7393211;19;20074;-73
2022/09/18 10:38:46;;;;;;;0.50;0.50;;;;;;;;;;7393214;19;20023;-73
2022/09/18 10:41:23;;;;;;;2.10;1.13;;;;;;;;;;7389833;19;20110;-72
2022/09/18 10:44:19;;;;;;;0.82;0.28;;;;;;;;;;7393575;19;20015;-73
2022/09/18 10:47:02;;;;;;;0.82;0.50;;;;;;;;;;7394503;19;20003;-72
2022/09/18 10:49:34;;;;;;;1.85;0.40;;;;;;;;;;7389019;19;20143;-73
2022/09/18 10:52:26;;;;;;;0.47;0.20;;;;;;;;;;7389910;19;20369;-72
2022/09/18 10:55:04;;;;;;;1.48;0.60;;;;;;;;;;7397476;19;20129;-73
2022/09/18 10:57:36;;;;;;;0.82;0.50;;;;;;;;;;7392294;19;20018;-73
2022/09/18 11:00:09;;;;;;;2.03;0.50;;;;;;;;;;7390907;19;20017;-72
2022/09/18 11:02:40;;;;;;;1.25;0.40;;;;;;;;;;7392767;19;20456;-72
2022/09/18 11:05:16;;;;;;;0.90;0.40;;;;;;;;;;7392703;19;20089;-72
2022/09/18 11:07:50;;;;;;;2.50;0.45;;;;;;;;;;7393635;19;20025;-71
2022/09/18 11:10:25;;;;;;;1.27;0.50;;;;;;;;;;7392590;19;20006;-71
2022/09/18 11:12:57;;;;;;;1.23;0.88;;;;;;;;;;7388357;19;20477;-71
2022/09/18 11:15:26;;;;;;;1.95;0.65;;;;;;;;;;7391042;19;20427;-72
2022/09/18 11:17:54;;;;;;;0.85;0.50;;;;;;;;;;7393853;19;20051;-71
2022/09/18 11:20:29;;;;;;;1.10;0.40;;;;;;;;;;7394415;19;20119;-72
2022/09/18 11:23:13;;;;;;;;;;;;;;;;;;7387642;19;20017;-71
2022/09/18 11:25:38;;;;;;;0.80;0.35;;;;;;;;;;7393077;19;19971;-71
2022/09/18 11:28:27;;;;;;;1.42;0.65;;;;;;;;;;7389081;19;20429;-72
2022/09/18 11:30:57;;;;;;;1.90;0.40;;;;;;;;;;7391739;19;20023;-71
2022/09/18 11:33:50;;;;;;;2.05;1.10;;;;;;;;;;7392067;19;20009;-71
2022/09/18 11:36:26;;;;;;;1.15;0.80;;;;;;;;;;7391753;19;20027;-72
2022/09/18 11:38:53;;;;;;;1.13;0.98;;;;;;;;;;7391551;19;20014;-72
2022/09/18 11:41:24;;;;;;;1.90;0.80;;;;;;;;;;7393064;19;20025;-73
2022/09/18 11:44:00;;;;;;;2.03;1.00;;;;;;;;;;7391128;19;20006;-71
2022/09/18 11:46:45;;;;;;;3.53;1.88;;;;;;;;;;7388682;19;20015;-71
2022/09/18 11:49:16;;;;;;;4.25;1.27;;;;;;;;;;7393481;19;20005;-71
2022/09/18 11:51:55;;;;;;;1.77;0.60;;;;;;;;;;7389963;19;20022;-71
2022/09/18 11:54:33;;;;;;;1.52;0.73;;;;;;;;;;7393443;19;20010;-71
2022/09/18 11:57:03;;;;;;;0.40;0.40;;;;;;;;;;7390254;19;20149;-71
2022/09/18 11:59:36;;;;;;;1.02;0.38;;;;;;;;;;7391783;19;20018;-72
2022/09/18 12:02:13;;;;;;;0.55;0.55;;;;;;;;;;7391850;19;20359;-72
2022/09/18 12:04:47;;;;;;;0.43;0.43;;;;;;;;;;7389072;19;20006;-72
2022/09/18 12:07:34;;;;;;;0.90;0.68;;;;;;;;;;7389226;19;20330;-72
2022/09/18 12:10:38;;;;;;;0.90;0.47;;;;;;;;;;7392197;19;20020;-71
2022/09/18 12:13:24;;;;;;;1.33;0.70;;;;;;;;;;7386586;19;19999;-72
2022/09/18 12:15:59;;;;;;;0.88;0.60;;;;;;;;;;7392676;19;20003;-72
2022/09/18 12:18:29;;;;;;;1.10;0.55;;;;;;;;;;7388634;19;20013;-71
2022/09/18 12:21:01;;;;;;;1.42;0.43;;;;;;;;;;7390771;19;20011;-71
2022/09/18 12:23:27;;;;;;;0.60;0.30;;;;;;;;;;7390092;19;20081;-71
2022/09/18 12:25:52;;;;;;;1.33;0.52;;;;;;;;;;7390147;19;20366;-70
2022/09/18 12:28:34;;;;;;;2.00;0.30;;;;;;;;;;7385142;19;20014;-71
2022/09/18 12:31:19;;;;;;;0.52;0.30;;;;;;;;;;7389471;19;20006;-71
2022/09/18 12:33:53;;;;;;;0.80;0.60;;;;;;;;;;7390600;19;20006;-71
2022/09/18 12:36:39;;;;;;;0.30;0.30;;;;;;;;;;7388902;19;20016;-71
2022/09/18 12:39:41;;;;;;;2.60;0.40;;;;;;;;;;7387770;19;19998;-71
2022/09/18 12:42:42;;;;;;;0.30;0.30;;;;;;;;;;7391109;19;20006;-71
2022/09/18 12:45:42;;;;;;;0.45;0.30;;;;;;;;;;7387382;19;20044;-71
2022/09/18 12:48:26;;;;;;;0.63;0.40;;;;;;;;;;7388467;19;20011;-71
2022/09/18 12:51:18;;;;;;;2.15;0.50;;;;;;;;;;7389689;19;20618;-71
2022/09/18 12:54:07;;;;;;;2.10;0.40;;;;;;;;;;7389235;19;20010;-71
2022/09/18 12:57:05;;;;;;;0.52;0.28;;;;;;;;;;7391030;19;19999;-71
2022/09/18 12:59:58;;;;;;;0.85;0.43;;;;;;;;;;7389474;19;20095;-71
2022/09/18 13:02:37;;;;;;;0.45;0.40;;;;;;;;;;7391360;19;20038;-71
2022/09/18 13:05:18;;;;;;;7.97;1.48;;;;;;;;;;7388848;19;19995;-71
2022/09/18 13:07:53;;;;;;;0.47;0.30;;;;;;;;;;7391923;19;20062;-71
2022/09/18 13:10:30;;;;;;;0.80;0.25;;;;;;;;;;7387674;19;20074;-71
2022/09/18 13:13:04;;;;;;;2.55;0.50;;;;;;;;;;7388014;19;20020;-71
2022/09/18 13:15:40;;;;;;;2.58;0.63;;;;;;;;;;7390786;19;20108;-71
2022/09/18 13:18:21;;;;;;;2.42;0.50;;;;;;;;;;7387256;19;20354;-71
2022/09/18 13:20:46;;;;;;;1.65;0.30;;;;;;;;;;7390433;19;19999;-69
2022/09/18 13:23:17;;;;;;;1.98;0.52;;;;;;;;;;7387705;19;20011;-70
2022/09/18 13:25:46;;;;;;;3.22;0.60;;;;;;;;;;7390868;19;19998;-71
2022/09/18 13:28:14;;;;;;;1.55;0.55;;;;;;;;;;7389001;19;20010;-72
2022/09/18 13:30:39;;;;;;;2.13;0.77;;;;;;;;;;7386825;19;20486;-70
2022/09/18 13:33:19;;;;;;;2.75;0.47;;;;;;;;;;7388575;19;20010;-71
2022/09/18 13:35:52;;;;;;;1.20;0.50;;;;;;;;;;7388682;19;19999;-71
2022/09/18 13:38:20;;;;;;;3.13;1.13;;;;;;;;;;7391018;19;20027;-70
2022/09/18 13:41:01;;;;;;;1.92;0.77;;;;;;;;;;7397090;19;20066;-71
2022/09/18 13:43:26;;;;;;;1.67;0.60;;;;;;;;;;7393228;19;20369;-71
2022/09/18 13:45:53;;;;;;;0.63;0.32;;;;;;;;;;7396446;19;20002;-71
2022/09/18 13:48:27;;;;;;;0.75;0.40;;;;;;;;;;7395499;19;20679;-71
2022/09/18 13:51:04;;;;;;;2.70;0.68;;;;;;;;;;7398098;19;20017;-70
2022/09/18 13:53:30;;;;;;;2.22;0.60;;;;;;;;;;7390936;19;19998;-71
2022/09/18 13:55:56;;;;;;;3.92;0.52;;;;;;;;;;7396193;19;20017;-71
2022/09/18 13:58:33;;;;;;;2.50;0.68;;;;;;;;;;7392581;19;20002;-71
2022/09/18 14:01:04;;;;;;;0.40;0.30;;;;;;;;;;7390401;19;20002;-71
2022/09/18 14:03:31;;;;;;;2.35;0.28;;;;;;;;;;7395280;19;20005;-71
2022/09/18 14:05:56;;;;;;;0.68;0.22;;;;;;;;;;7398994;19;20002;-71
2022/09/18 14:08:22;;;;;;;1.10;0.38;;;;;;;;;;7392341;19;19991;-71
2022/09/18 14:10:47;;;;;;;1.13;0.32;;;;;;;;;;7392640;19;19994;-70
2022/09/18 14:13:21;;;;;;;1.35;0.50;;;;;;;;;;7392076;19;20035;-71
2022/09/18 14:15:59;;;;;;;1.17;0.63;;;;;;;;;;7396292;19;20002;-71
2022/09/18 14:18:29;;;;;;;0.82;0.20;;;;;;;;;;7394659;19;20011;-71
2022/09/18 14:21:11;;;;;;;1.92;0.50;;;;;;;;;;7396808;19;20006;-71
2022/09/18 14:23:39;;;;;;;1.67;0.60;;;;;;;;;;7388695;19;20003;-69
2022/09/18 14:26:28;;;;;;;1.23;0.50;;;;;;;;;;7393330;19;20367;-69
2022/09/18 14:29:01;;;;;;;1.65;0.60;;;;;;;;;;7391537;19;20085;-69
2022/09/18 14:31:30;;;;;;;1.67;0.50;;;;;;;;;;7396137;19;20045;-69
2022/09/18 14:34:05;;;;;;;1.52;0.80;;;;;;;;;;7396390;19;20088;-69
2022/09/18 14:36:49;;;;;;;7.13;1.20;;;;;;;;;;7395453;19;20011;-71
2022/09/18 14:39:26;;;;;;;2.20;0.70;;;;;;;;;;7393005;19;20329;-69
2022/09/18 14:41:53;;;;;;;1.63;0.63;;;;;;;;;;7394737;19;20047;-69
2022/09/18 14:44:19;;;;;;;1.48;0.77;;;;;;;;;;7392998;19;19991;-69
2022/09/18 14:46:57;;;;;;;1.95;0.80;;;;;;;;;;7396086;19;20013;-69
2022/09/18 14:49:40;;;;;;;1.55;0.77;;;;;;;;;;7390078;19;20007;-68
2022/09/18 14:52:39;;;;;;;2.47;0.88;;;;;;;;;;7388064;19;20081;-71
2022/09/18 14:55:13;;;;;;;6.18;1.40;;;;;;;;;;7396113;19;20100;-72
2022/09/18 14:57:46;;;;;;;7.68;2.08;;;;;;;;;;7391368;19;19991;-69
2022/09/18 15:00:18;;;;;;;4.38;1.23;;;;;;;;;;7393034;19;20364;-71
2022/09/18 15:02:52;;;;;;;3.40;1.20;;;;;;;;;;7392633;19;20165;-70
2022/09/18 15:05:19;;;;;;;5.50;1.60;;;;;;;;;;7391204;19;19994;-70
2022/09/18 15:08:14;;;;;;;4.65;1.50;;;;;;;;;;7392856;19;20010;-71
2022/09/18 15:10:43;;;;;;;4.85;2.25;;;;;;;;;;7395156;19;20006;-69
2022/09/18 15:13:12;;;;;;;4.38;1.90;;;;;;;;;;7390803;19;20058;-71